Time;durP1;ratioP1;P1;durP2;ratioP2;P2;SDS_P1;SDS_P2;PMS_P1;PMS_P2;Temp;Humidity;BMP_temperature;BMP_pressure;BME280_temperature;BME280_humidity;BME280_pressure;Samples;Min_cycle;Max_cycle;Signal;HPM_P1;HPM_P2
2021/03/20 00:00:45;;;;;;;5.50;4.95;;;5.00;99.90;;;;;;2079484;28;20135;-75
2021/03/20 00:01:47;;;;;;;5.60;5.05;;;5.00;99.90;;;;;;2078925;28;20033;-75
2021/03/20 00:02:48;;;;;;;4.75;4.35;;;5.00;99.90;;;;;;2071955;28;20073;-75
2021/03/20 00:03:49;;;;;;;4.88;4.47;;;4.90;99.90;;;;;;2080497;28;20421;-75
2021/03/20 00:04:50;;;;;;;4.70;4.30;;;4.90;99.90;;;;;;2080501;28;20021;-75
2021/03/20 00:05:52;;;;;;;5.22;4.60;;;4.90;99.90;;;;;;2080247;28;20393;-75
2021/03/20 00:06:55;;;;;;;4.88;4.35;;;4.90;99.90;;;;;;2079483;28;20040;-75
2021/03/20 00:07:56;;;;;;;6.32;4.60;;;4.90;99.90;;;;;;2080466;28;20037;-75
2021/03/20 00:08:57;;;;;;;6.18;4.32;;;4.90;99.90;;;;;;2079407;28;20033;-75
2021/03/20 00:09:58;;;;;;;6.88;4.95;;;4.90;99.90;;;;;;2077060;28;20278;-74
2021/03/20 00:10:59;;;;;;;5.20;4.55;;;4.90;99.90;;;;;;2079415;28;20030;-74
2021/03/20 00:12:00;;;;;;;4.85;4.30;;;4.90;99.90;;;;;;2086325;28;20025;-75
2021/03/20 00:13:01;;;;;;;7.63;4.95;;;4.90;99.90;;;;;;2084904;28;20110;-75
2021/03/20 00:14:03;;;;;;;6.63;4.43;;;4.90;99.90;;;;;;2080019;28;20390;-75
2021/03/20 00:15:06;;;;;;;4.75;4.32;;;4.90;99.90;;;;;;2071553;28;20478;-75
2021/03/20 00:16:08;;;;;;;6.15;4.60;;;4.80;99.90;;;;;;2079755;28;20079;-75
2021/03/20 00:17:08;;;;;;;5.97;4.82;;;4.80;99.90;;;;;;2079244;28;20245;-75
2021/03/20 00:18:09;;;;;;;5.82;4.40;;;4.80;99.90;;;;;;2079501;28;20025;-75
2021/03/20 00:19:10;;;;;;;5.60;4.55;;;4.80;99.90;;;;;;2069559;28;20022;-75
2021/03/20 00:20:14;;;;;;;5.43;4.75;;;4.80;99.90;;;;;;2067491;28;20030;-75
2021/03/20 00:21:15;;;;;;;4.25;3.85;;;4.80;99.90;;;;;;2079470;28;20025;-75
2021/03/20 00:22:16;;;;;;;5.05;4.55;;;4.80;99.90;;;;;;2071683;28;20053;-75
2021/03/20 00:23:16;;;;;;;5.85;5.20;;;4.80;99.90;;;;;;2079930;28;20017;-75
2021/03/20 00:24:17;;;;;;;6.90;5.40;;;4.80;99.90;;;;;;2079973;28;20029;-75
2021/03/20 00:25:19;;;;;;;5.32;4.65;;;4.80;99.90;;;;;;2079924;28;20489;-75
2021/03/20 00:26:20;;;;;;;5.45;4.50;;;4.80;99.90;;;;;;2079735;28;20025;-75
2021/03/20 00:27:21;;;;;;;5.95;3.90;;;4.70;99.90;;;;;;2079464;28;20100;-75
2021/03/20 00:28:25;;;;;;;4.55;4.15;;;4.70;99.90;;;;;;2080109;28;20485;-75
2021/03/20 00:29:26;;;;;;;4.60;4.18;;;4.70;99.90;;;;;;2080058;28;20029;-75
2021/03/20 00:30:27;;;;;;;5.18;4.00;;;4.70;99.90;;;;;;2079707;28;20030;-75
2021/03/20 00:31:28;;;;;;;5.10;3.97;;;4.70;99.90;;;;;;2079704;28;20052;-75
2021/03/20 00:32:29;;;;;;;4.35;3.92;;;4.60;99.90;;;;;;2079652;28;20120;-75
2021/03/20 00:33:30;;;;;;;6.45;4.35;;;4.60;99.90;;;;;;2079410;28;20025;-75
2021/03/20 00:34:30;;;;;;;5.63;4.07;;;4.60;99.90;;;;;;2078928;28;20053;-75
2021/03/20 00:35:31;;;;;;;4.22;3.83;;;4.50;99.90;;;;;;2069395;28;20465;-74
2021/03/20 00:36:32;;;;;;;3.63;3.22;;;4.50;99.90;;;;;;2065098;28;20022;-75
2021/03/20 00:37:33;;;;;;;3.92;3.63;;;4.50;99.90;;;;;;2078526;28;20034;-75
2021/03/20 00:38:33;;;;;;;5.47;3.55;;;4.50;99.90;;;;;;2079663;28;20539;-75
2021/03/20 00:39:34;;;;;;;4.00;3.30;;;4.50;99.90;;;;;;2080099;28;20018;-75
2021/03/20 00:40:35;;;;;;;3.63;3.33;;;4.50;99.90;;;;;;2079435;28;20021;-75
2021/03/20 00:41:37;;;;;;;4.95;3.88;;;4.50;99.70;;;;;;2071777;28;20075;-75
2021/03/20 00:42:38;;;;;;;6.65;3.38;;;4.40;99.50;;;;;;2071643;28;20478;-75
2021/03/20 00:43:39;;;;;;;4.88;3.83;;;4.40;99.30;;;;;;2067514;28;20107;-74
2021/03/20 00:44:40;;;;;;;5.97;4.32;;;4.40;99.20;;;;;;2079602;28;20018;-75
2021/03/20 00:45:41;;;;;;;6.28;3.70;;;4.40;99.30;;;;;;2079745;28;20404;-75
2021/03/20 00:46:41;;;;;;;4.70;3.85;;;4.30;99.20;;;;;;2079423;28;20465;-74
2021/03/20 00:47:42;;;;;;;3.88;3.47;;;4.30;99.20;;;;;;2063773;28;20117;-75
2021/03/20 00:48:43;;;;;;;3.90;3.47;;;4.30;99.10;;;;;;2068704;28;20037;-75
2021/03/20 00:49:44;;;;;;;3.67;3.38;;;4.30;99.10;;;;;;2072451;28;20026;-75
2021/03/20 00:50:44;;;;;;;3.88;3.50;;;4.30;99.00;;;;;;2079393;28;20039;-75
2021/03/20 00:51:45;;;;;;;3.70;3.33;;;4.30;98.90;;;;;;2078564;28;20112;-74
2021/03/20 00:52:46;;;;;;;4.22;3.17;;;4.30;98.70;;;;;;2079358;28;20022;-75
2021/03/20 00:53:46;;;;;;;4.60;3.50;;;4.30;98.60;;;;;;2079893;28;20056;-75
2021/03/20 00:54:47;;;;;;;5.65;4.00;;;4.30;98.60;;;;;;2071198;28;20103;-75
2021/03/20 00:55:48;;;;;;;3.95;3.22;;;4.30;98.40;;;;;;2071312;28;20080;-75
2021/03/20 00:56:49;;;;;;;4.45;3.33;;;4.20;98.20;;;;;;2070889;28;20025;-74
2021/03/20 00:57:50;;;;;;;3.97;3.55;;;4.30;98.10;;;;;;2071444;28;20391;-74
2021/03/20 00:58:51;;;;;;;3.75;3.30;;;4.20;97.80;;;;;;2079464;28;20040;-74
2021/03/20 00:59:52;;;;;;;4.97;3.58;;;4.20;97.80;;;;;;2069933;28;20065;-75
2021/03/20 01:00:57;;;;;;;3.35;2.97;;;4.20;97.70;;;;;;2070924;28;20029;-74
2021/03/20 01:01:58;;;;;;;3.13;2.80;;;4.20;97.90;;;;;;2078735;28;20026;-75
2021/03/20 01:02:58;;;;;;;3.10;2.70;;;4.10;97.30;;;;;;2079211;28;20474;-75
2021/03/20 01:03:59;;;;;;;4.38;2.88;;;4.10;97.20;;;;;;2079681;28;20068;-75
2021/03/20 01:05:00;;;;;;;4.30;2.88;;;4.10;97.10;;;;;;2079676;28;20112;-75
2021/03/20 01:06:00;;;;;;;3.25;2.30;;;4.10;97.10;;;;;;2079621;28;20032;-75
2021/03/20 01:07:01;;;;;;;3.05;2.72;;;4.10;96.70;;;;;;2079174;28;20147;-75
2021/03/20 01:08:02;;;;;;;3.38;2.30;;;4.00;96.50;;;;;;2079209;28;20129;-75
2021/03/20 01:09:05;;;;;;;3.58;2.58;;;4.00;96.40;;;;;;2079873;28;20025;-74
2021/03/20 01:10:09;;;;;;;3.00;2.63;;;4.00;96.00;;;;;;2080007;28;20032;-75
2021/03/20 01:11:12;;;;;;;2.83;2.60;;;4.00;96.10;;;;;;2079825;28;20034;-74
2021/03/20 01:12:12;;;;;;;3.53;2.65;;;4.00;95.90;;;;;;2079600;28;20025;-74
2021/03/20 01:13:14;;;;;;;3.15;2.58;;;3.90;95.90;;;;;;2079594;28;20503;-75
2021/03/20 01:14:15;;;;;;;3.60;2.70;;;3.90;95.90;;;;;;2079645;28;20040;-74
2021/03/20 01:15:18;;;;;;;2.83;2.63;;;3.90;95.70;;;;;;2079874;28;20022;-75
2021/03/20 01:16:18;;;;;;;2.40;2.20;;;3.90;95.90;;;;;;2079868;28;20033;-74
2021/03/20 01:17:19;;;;;;;2.22;2.10;;;3.90;95.50;;;;;;2079186;28;20028;-75
2021/03/20 01:18:20;;;;;;;2.47;2.28;;;3.90;95.10;;;;;;2078786;28;20700;-75
2021/03/20 01:19:22;;;;;;;3.40;2.58;;;3.90;95.10;;;;;;2079202;28;20017;-75
2021/03/20 01:20:23;;;;;;;2.97;2.67;;;3.90;94.60;;;;;;2071751;28;20101;-75
2021/03/20 01:21:25;;;;;;;2.47;2.28;;;3.80;94.50;;;;;;2071384;28;20018;-74
2021/03/20 01:22:25;;;;;;;2.80;2.60;;;3.80;94.40;;;;;;2079332;28;20040;-75
2021/03/20 01:23:26;;;;;;;2.60;2.30;;;3.80;94.10;;;;;;2071681;28;20026;-75
2021/03/20 01:24:26;;;;;;;3.03;2.30;;;3.80;94.10;;;;;;2067928;28;20078;-74
2021/03/20 01:25:27;;;;;;;2.70;2.42;;;3.80;94.10;;;;;;2079456;28;20108;-75
2021/03/20 01:26:28;;;;;;;3.58;2.20;;;3.80;94.10;;;;;;2071213;28;20470;-74
2021/03/20 01:27:28;;;;;;;4.35;2.67;;;3.80;94.10;;;;;;2071076;28;20037;-74
2021/03/20 01:28:32;;;;;;;2.33;2.13;;;3.70;93.90;;;;;;2073347;28;20025;-74
2021/03/20 01:29:33;;;;;;;4.10;2.28;;;3.70;93.70;;;;;;2072812;28;20038;-74
2021/03/20 01:30:36;;;;;;;2.45;2.25;;;3.70;93.80;;;;;;2072541;28;20084;-75
2021/03/20 01:31:36;;;;;;;2.30;2.05;;;3.70;94.00;;;;;;2079836;28;20025;-74
2021/03/20 01:32:37;;;;;;;2.72;2.40;;;3.70;94.10;;;;;;2079229;28;20043;-74
2021/03/20 01:33:38;;;;;;;3.17;2.25;;;3.70;94.30;;;;;;2079904;28;20475;-74
2021/03/20 01:34:39;;;;;;;2.92;2.30;;;3.70;94.20;;;;;;2080170;28;20112;-74
2021/03/20 01:35:40;;;;;;;4.68;2.40;;;3.60;94.00;;;;;;2080152;28;20021;-74
2021/03/20 01:36:40;;;;;;;3.80;2.50;;;3.70;94.10;;;;;;2080032;28;20076;-74
2021/03/20 01:37:41;;;;;;;2.40;2.20;;;3.60;94.10;;;;;;2071733;28;20116;-74
2021/03/20 01:38:42;;;;;;;2.67;2.00;;;3.60;94.10;;;;;;2071491;28;20029;-74
2021/03/20 01:39:43;;;;;;;3.78;2.38;;;3.60;94.20;;;;;;2071998;28;20022;-74
2021/03/20 01:40:47;;;;;;;2.88;2.17;;;3.60;94.10;;;;;;2063197;28;20503;-74
2021/03/20 01:41:47;;;;;;;3.10;2.03;;;3.60;94.10;;;;;;2072383;28;20033;-74
2021/03/20 01:42:48;;;;;;;2.85;2.05;;;3.60;94.00;;;;;;2071916;28;20637;-74
2021/03/20 01:43:49;;;;;;;3.40;2.17;;;3.60;93.90;;;;;;2079774;28;20026;-74
2021/03/20 01:45:16;;;;;;;3.88;2.67;;;3.50;93.90;;;;;;2071519;28;20030;-74
2021/03/20 01:46:28;;;;;;;3.03;2.38;;;3.50;94.00;;;;;;2075341;28;20025;-74
2021/03/20 01:47:29;;;;;;;2.63;2.42;;;3.50;93.80;;;;;;2078691;28;20409;-74
2021/03/20 01:48:36;;;;;;;2.97;2.40;;;3.50;93.80;;;;;;2080091;28;20037;-74
2021/03/20 01:49:45;;;;;;;2.58;1.95;;;3.40;93.80;;;;;;2079455;28;20381;-74
2021/03/20 01:50:51;;;;;;;2.40;2.20;;;3.40;93.90;;;;;;2072897;28;20034;-74
2021/03/20 01:52:02;;;;;;;2.72;2.10;;;3.40;94.00;;;;;;2071897;28;20520;-73
2021/03/20 01:53:21;;;;;;;2.75;2.33;;;3.40;93.90;;;;;;2080151;28;20118;-78
2021/03/20 01:54:25;;;;;;;2.30;2.10;;;3.40;93.90;;;;;;2082543;28;20456;-78
2021/03/20 01:55:27;;;;;;;2.53;2.10;;;3.40;93.90;;;;;;2083634;28;20025;-78
2021/03/20 01:56:39;;;;;;;3.25;2.30;;;3.30;93.90;;;;;;2091629;28;20029;-78
2021/03/20 01:57:48;;;;;;;3.28;2.33;;;3.30;93.80;;;;;;2085313;28;20124;-76
2021/03/20 01:58:52;;;;;;;3.42;2.50;;;3.30;93.80;;;;;;2071238;28;20029;-76
2021/03/20 01:59:54;;;;;;;4.40;2.70;;;3.30;93.80;;;;;;2074369;28;20025;-77
2021/03/20 02:01:08;;;;;;;2.58;2.22;;;3.30;93.70;;;;;;2079020;28;20044;-76
2021/03/20 02:02:09;;;;;;;3.30;2.50;;;3.30;93.60;;;;;;2079963;28;20032;-76
2021/03/20 02:03:15;;;;;;;3.65;2.08;;;3.20;93.60;;;;;;2078930;28;20032;-76
2021/03/20 02:04:16;;;;;;;4.20;2.20;;;3.20;93.70;;;;;;2079412;28;20028;-76
2021/03/20 02:05:27;;;;;;;3.22;2.40;;;3.20;94.00;;;;;;2078868;28;20031;-76
2021/03/20 02:06:28;;;;;;;3.28;2.30;;;3.10;94.40;;;;;;2079591;28;20044;-76
2021/03/20 02:07:29;;;;;;;2.17;1.98;;;3.10;94.40;;;;;;2079571;28;20041;-76
2021/03/20 02:08:49;;;;;;;3.03;2.05;;;3.10;94.30;;;;;;2079101;28;20032;-76
2021/03/20 02:09:50;;;;;;;2.33;2.03;;;3.10;94.40;;;;;;2077243;28;20037;-76
2021/03/20 02:10:54;;;;;;;2.38;1.80;;;3.00;94.40;;;;;;2078913;28;20029;-77
2021/03/20 02:12:20;;;;;;;4.38;2.60;;;3.10;94.40;;;;;;2079090;28;20048;-76
2021/03/20 02:13:33;;;;;;;6.28;2.22;;;3.00;94.50;;;;;;2073978;28;20041;-76
2021/03/20 02:15:12;;;;;;;2.30;2.10;;;3.00;94.50;;;;;;2070908;28;20057;-76
2021/03/20 02:16:24;;;;;;;3.03;2.50;;;2.90;94.70;;;;;;2076641;28;20373;-76
2021/03/20 02:17:41;;;;;;;3.50;2.30;;;2.90;94.80;;;;;;2078339;28;20029;-76
2021/03/20 02:19:01;;;;;;;2.20;2.00;;;2.90;94.80;;;;;;2079033;28;20033;-75
2021/03/20 02:20:19;;;;;;;2.55;2.30;;;2.80;94.90;;;;;;2073284;28;20030;-76
2021/03/20 02:21:27;;;;;;;3.03;2.50;;;2.80;94.90;;;;;;2072773;28;20069;-76
2021/03/20 02:22:55;;;;;;;3.03;2.72;;;2.80;95.00;;;;;;2079108;28;20025;-76
2021/03/20 02:24:30;;;;;;;2.88;2.40;;;2.70;95.00;;;;;;2079470;28;20021;-76
2021/03/20 02:25:33;;;;;;;2.50;2.20;;;2.70;95.10;;;;;;2078369;28;20032;-75
2021/03/20 02:27:01;;;;;;;3.42;2.50;;;2.70;94.90;;;;;;2078548;28;20037;-76
2021/03/20 02:28:13;;;;;;;3.90;2.63;;;2.70;94.90;;;;;;2082391;28;20516;-76
2021/03/20 02:29:46;;;;;;;3.63;2.42;;;2.60;95.00;;;;;;2082129;28;20040;-76
2021/03/20 02:31:02;;;;;;;2.28;2.08;;;2.60;95.00;;;;;;2079119;28;20036;-76
2021/03/20 02:32:14;;;;;;;3.20;2.53;;;2.60;94.90;;;;;;2073316;28;20030;-76
2021/03/20 02:33:26;;;;;;;2.17;2.05;;;2.60;94.80;;;;;;2079083;28;20087;-76
2021/03/20 02:34:43;;;;;;;2.58;2.30;;;2.50;94.90;;;;;;2088377;28;20505;-76
2021/03/20 02:36:13;;;;;;;3.03;2.42;;;2.50;95.10;;;;;;2083397;28;20041;-76
2021/03/20 02:37:48;;;;;;;2.92;2.47;;;2.50;95.20;;;;;;2078856;28;20079;-76
2021/03/20 02:39:02;;;;;;;3.25;2.47;;;2.50;95.60;;;;;;2069816;28;20124;-75
2021/03/20 02:40:32;;;;;;;3.10;2.25;;;2.50;95.60;;;;;;2085268;28;20039;-76
2021/03/20 02:41:56;;;;;;;3.50;2.78;;;2.50;95.70;;;;;;2071405;28;20030;-75
2021/03/20 02:43:29;;;;;;;4.72;2.50;;;2.40;95.70;;;;;;2079277;28;20032;-76
2021/03/20 02:45:00;;;;;;;2.58;2.17;;;2.40;96.00;;;;;;2079211;28;20067;-76
2021/03/20 02:46:10;;;;;;;2.50;2.30;;;2.40;96.40;;;;;;2068010;28;20533;-75
2021/03/20 02:47:14;;;;;;;2.58;2.38;;;2.40;96.20;;;;;;2071738;28;20049;-76
2021/03/20 02:48:24;;;;;;;1.90;1.80;;;2.40;96.30;;;;;;2074481;28;20597;-76
2021/03/20 02:49:51;;;;;;;2.17;1.98;;;2.40;96.20;;;;;;2074953;28;20120;-76
2021/03/20 02:51:14;;;;;;;3.25;2.28;;;2.40;96.40;;;;;;2070729;28;20056;-76
2021/03/20 02:52:32;;;;;;;2.50;2.28;;;2.40;96.10;;;;;;2072953;28;20433;-76
2021/03/20 02:53:43;;;;;;;2.40;2.20;;;2.40;96.20;;;;;;2085542;28;20040;-76
2021/03/20 02:54:58;;;;;;;2.58;2.10;;;2.40;96.10;;;;;;2085974;28;20037;-76
2021/03/20 02:56:00;;;;;;;2.67;2.42;;;2.40;96.10;;;;;;2072734;28;20030;-76
2021/03/20 02:57:09;;;;;;;2.80;2.50;;;2.40;95.90;;;;;;2070156;28;20570;-76
2021/03/20 02:58:18;;;;;;;2.75;2.10;;;2.40;96.00;;;;;;2073271;28;20520;-76
2021/03/20 02:59:23;;;;;;;2.55;2.35;;;2.40;96.00;;;;;;2073332;28;20056;-76
2021/03/20 03:00:32;;;;;;;2.78;2.10;;;2.40;96.00;;;;;;2080879;28;20484;-75
2021/03/20 03:01:35;;;;;;;4.32;2.90;;;2.40;96.00;;;;;;2081497;28;20025;-76
2021/03/20 03:02:37;;;;;;;3.60;2.53;;;2.40;95.90;;;;;;2074013;28;20026;-75
2021/03/20 03:03:42;;;;;;;4.07;2.92;;;2.40;95.90;;;;;;2079329;28;20021;-76
2021/03/20 03:04:59;;;;;;;3.28;2.72;;;2.40;96.00;;;;;;2090050;28;20029;-76
2021/03/20 03:06:08;;;;;;;2.25;2.05;;;2.40;96.00;;;;;;2087321;28;20025;-75
2021/03/20 03:07:19;;;;;;;3.92;2.38;;;2.30;95.90;;;;;;2081313;28;20413;-76
2021/03/20 03:08:26;;;;;;;3.00;2.40;;;2.30;96.10;;;;;;2074527;28;20030;-76
2021/03/20 03:09:44;;;;;;;2.95;2.30;;;2.30;96.20;;;;;;2081195;28;20031;-75
2021/03/20 03:10:48;;;;;;;5.18;2.25;;;2.30;96.30;;;;;;2081659;28;20135;-76
2021/03/20 03:11:54;;;;;;;8.15;2.67;;;2.30;96.30;;;;;;2081481;28;20029;-75
2021/03/20 03:13:01;;;;;;;3.25;2.95;;;2.30;96.30;;;;;;2076382;28;20026;-76
2021/03/20 03:14:11;;;;;;;2.88;2.15;;;2.20;96.20;;;;;;2077828;28;20087;-76
2021/03/20 03:15:21;;;;;;;2.85;2.22;;;2.20;96.20;;;;;;2081433;28;20036;-75
2021/03/20 03:16:35;;;;;;;3.10;2.53;;;2.20;96.40;;;;;;2069342;28;20580;-75
2021/03/20 03:17:39;;;;;;;3.13;2.63;;;2.20;96.30;;;;;;2076847;28;20683;-76
2021/03/20 03:18:49;;;;;;;3.08;2.35;;;2.20;96.20;;;;;;2089198;28;20119;-76
2021/03/20 03:19:59;;;;;;;3.42;2.42;;;2.20;96.40;;;;;;2080380;28;20485;-76
2021/03/20 03:21:03;;;;;;;3.17;2.42;;;2.20;96.30;;;;;;2070561;28;20462;-76
2021/03/20 03:22:09;;;;;;;3.53;2.70;;;2.20;95.90;;;;;;2073477;28;20030;-76
2021/03/20 03:23:16;;;;;;;2.67;2.40;;;2.10;95.90;;;;;;2081475;28;20037;-75
2021/03/20 03:24:20;;;;;;;3.95;2.35;;;2.10;95.80;;;;;;2073790;28;20574;-76
2021/03/20 03:25:24;;;;;;;5.32;2.50;;;2.10;95.80;;;;;;2081013;28;20473;-76
2021/03/20 03:26:33;;;;;;;3.45;2.35;;;2.10;95.90;;;;;;2080814;28;20033;-76
2021/03/20 03:27:37;;;;;;;2.55;2.35;;;2.10;95.90;;;;;;2080646;28;20040;-76
2021/03/20 03:28:39;;;;;;;3.30;2.22;;;2.10;95.90;;;;;;2080053;28;20335;-76
2021/03/20 03:29:42;;;;;;;3.20;2.35;;;2.10;95.90;;;;;;2081266;28;20061;-76
2021/03/20 03:30:42;;;;;;;3.85;2.70;;;2.10;95.90;;;;;;2081121;28;20044;-76
2021/03/20 03:31:46;;;;;;;2.92;2.55;;;2.10;95.70;;;;;;2080594;28;20040;-75
2021/03/20 03:32:50;;;;;;;3.00;2.50;;;2.10;95.70;;;;;;2072970;28;20026;-75
2021/03/20 03:34:06;;;;;;;3.13;2.60;;;2.10;95.60;;;;;;2072957;28;20496;-76
2021/03/20 03:35:15;;;;;;;4.25;2.45;;;2.10;95.50;;;;;;2067357;28;20030;-76
2021/03/20 03:36:19;;;;;;;3.53;2.60;;;2.10;95.80;;;;;;2074184;28;20471;-76
2021/03/20 03:37:48;;;;;;;6.15;2.88;;;2.00;95.60;;;;;;2080804;28;20064;-76
2021/03/20 03:39:04;;;;;;;4.30;2.38;;;2.00;95.60;;;;;;2080783;28;20091;-76
2021/03/20 03:40:11;;;;;;;3.47;2.97;;;1.90;96.00;;;;;;2081014;28;20049;-76
2021/03/20 03:41:33;;;;;;;2.97;2.40;;;1.90;95.70;;;;;;2081261;28;20021;-76
2021/03/20 03:42:33;;;;;;;2.85;2.20;;;2.00;95.80;;;;;;2081493;28;20470;-76
2021/03/20 03:43:34;;;;;;;2.67;2.38;;;1.90;95.80;;;;;;2080973;28;20066;-76
2021/03/20 03:44:35;;;;;;;2.40;2.20;;;1.90;95.80;;;;;;2081204;28;20425;-75
2021/03/20 03:45:36;;;;;;;4.30;2.80;;;1.90;95.80;;;;;;2081007;28;20116;-76
2021/03/20 03:46:44;;;;;;;5.07;2.80;;;1.90;95.70;;;;;;2086186;28;20021;-75
2021/03/20 03:47:47;;;;;;;3.75;2.72;;;1.90;95.70;;;;;;2088349;28;20086;-75
2021/03/20 03:48:56;;;;;;;5.43;2.97;;;1.90;95.70;;;;;;2080801;28;20497;-76
2021/03/20 03:50:00;;;;;;;2.67;2.40;;;1.90;95.70;;;;;;2073732;28;20506;-76
2021/03/20 03:51:16;;;;;;;6.05;2.47;;;1.90;95.70;;;;;;2080939;28;20038;-76
2021/03/20 03:52:17;;;;;;;3.42;2.22;;;1.90;95.90;;;;;;2081515;28;20097;-76
2021/03/20 03:53:24;;;;;;;3.35;2.05;;;1.90;95.90;;;;;;2080442;28;20019;-76
2021/03/20 03:54:25;;;;;;;5.30;3.55;;;1.90;96.00;;;;;;2073770;28;20029;-76
2021/03/20 03:55:25;;;;;;;5.22;3.15;;;1.90;95.90;;;;;;2072777;28;20069;-76
2021/03/20 03:56:50;;;;;;;4.05;2.47;;;1.90;95.90;;;;;;2089425;28;20488;-75
2021/03/20 03:58:00;;;;;;;3.05;2.20;;;1.90;96.00;;;;;;2085964;28;20053;-76
2021/03/20 03:59:17;;;;;;;3.75;2.42;;;1.90;96.00;;;;;;2074244;28;20026;-75
2021/03/20 04:00:54;;;;;;;3.00;2.70;;;1.80;96.10;;;;;;2077994;28;20430;-75
2021/03/20 04:02:38;;;;;;;4.53;2.58;;;1.70;96.20;;;;;;2079221;28;20025;-76
2021/03/20 04:04:01;;;;;;;3.03;2.30;;;1.70;96.20;;;;;;2077832;28;20072;-74
2021/03/20 04:05:02;;;;;;;4.35;2.75;;;1.70;96.30;;;;;;2078664;28;20026;-74
2021/03/20 04:06:21;;;;;;;3.30;2.53;;;1.70;96.20;;;;;;2071982;28;20109;-74
2021/03/20 04:08:00;;;;;;;2.85;2.25;;;1.70;96.30;;;;;;2080209;28;20045;-74
2021/03/20 04:09:31;;;;;;;5.18;2.80;;;1.70;96.40;;;;;;2080146;28;20060;-74
2021/03/20 04:10:42;;;;;;;;;;;1.60;96.40;;;;;;2074294;28;20549;-74
2021/03/20 04:11:57;;;;;;;4.18;3.10;;;1.50;96.70;;;;;;2072820;28;19949;-74
2021/03/20 04:13:09;;;;;;;3.40;2.42;;;1.50;96.60;;;;;;2076523;28;20025;-74
2021/03/20 04:14:22;;;;;;;4.28;2.63;;;1.60;96.60;;;;;;2072529;28;20037;-74
2021/03/20 04:15:38;;;;;;;5.85;2.65;;;1.60;96.60;;;;;;2073555;28;20034;-74
2021/03/20 04:17:12;;;;;;;4.38;2.63;;;1.60;96.60;;;;;;2072165;28;20518;-74
2021/03/20 04:18:34;;;;;;;2.15;1.88;;;1.50;96.60;;;;;;2050867;28;20380;-74
2021/03/20 04:19:55;;;;;;;4.80;2.92;;;1.50;96.50;;;;;;2072595;28;20489;-74
2021/03/20 04:21:23;;;;;;;3.80;2.60;;;1.50;96.60;;;;;;2074364;28;20244;-74
2021/03/20 04:22:42;;;;;;;2.80;2.33;;;1.50;96.80;;;;;;2075243;28;20060;-74
2021/03/20 04:23:51;;;;;;;2.67;2.25;;;1.50;96.80;;;;;;2079484;28;20021;-74
2021/03/20 04:25:05;;;;;;;4.93;2.47;;;1.50;96.80;;;;;;2071047;28;20028;-74
2021/03/20 04:26:31;;;;;;;5.72;2.60;;;1.50;96.80;;;;;;2078044;28;20021;-74
2021/03/20 04:27:34;;;;;;;4.38;2.40;;;1.50;96.80;;;;;;2071432;28;20061;-74
2021/03/20 04:28:41;;;;;;;4.63;2.60;;;1.50;96.70;;;;;;2074952;28;20017;-74
2021/03/20 04:30:02;;;;;;;2.85;2.50;;;1.50;96.70;;;;;;2072136;28;20038;-74
2021/03/20 04:31:41;;;;;;;2.78;2.55;;;1.50;96.70;;;;;;2079643;28;20033;-74
2021/03/20 04:33:09;;;;;;;3.70;2.67;;;1.50;96.70;;;;;;2073307;28;20043;-74
2021/03/20 04:34:24;;;;;;;3.60;2.22;;;1.40;96.70;;;;;;2079753;28;20025;-74
2021/03/20 04:35:38;;;;;;;3.83;2.53;;;1.50;96.60;;;;;;2073378;28;20038;-74
2021/03/20 04:36:46;;;;;;;3.13;2.15;;;1.50;96.50;;;;;;2073493;28;20236;-73
2021/03/20 04:37:50;;;;;;;3.47;2.13;;;1.40;96.40;;;;;;2079616;28;20075;-74
2021/03/20 04:38:53;;;;;;;3.33;2.53;;;1.40;96.30;;;;;;2079362;28;20113;-74
2021/03/20 04:39:55;;;;;;;3.28;2.70;;;1.50;96.20;;;;;;2079397;28;20043;-73
2021/03/20 04:41:09;;;;;;;3.15;2.13;;;1.40;96.20;;;;;;2079555;28;20029;-73
2021/03/20 04:42:11;;;;;;;3.10;2.30;;;1.40;96.10;;;;;;2079884;28;20025;-74
2021/03/20 04:43:19;;;;;;;2.65;2.25;;;1.50;96.10;;;;;;2071536;28;20037;-76
2021/03/20 04:44:20;;;;;;;3.03;2.55;;;1.50;96.20;;;;;;2072703;28;20032;-74
2021/03/20 04:45:38;;;;;;;3.40;2.30;;;1.50;96.00;;;;;;2071168;28;20045;-73
2021/03/20 04:46:40;;;;;;;3.33;2.30;;;1.40;96.00;;;;;;2079708;28;20026;-74
2021/03/20 04:47:42;;;;;;;3.05;2.45;;;1.40;96.10;;;;;;2079430;28;20511;-74
2021/03/20 04:48:47;;;;;;;2.55;2.35;;;1.40;96.10;;;;;;2071438;28;20446;-74
2021/03/20 04:49:57;;;;;;;3.25;2.40;;;1.40;96.10;;;;;;2071883;28;20494;-74
2021/03/20 04:51:06;;;;;;;4.53;2.38;;;1.40;96.10;;;;;;2079769;28;20084;-75
2021/03/20 04:52:28;;;;;;;2.65;2.30;;;1.40;96.10;;;;;;2072380;28;20026;-74
2021/03/20 04:53:29;;;;;;;2.65;2.45;;;1.40;96.40;;;;;;2073767;28;20056;-74
2021/03/20 04:54:30;;;;;;;7.63;3.22;;;1.40;96.40;;;;;;2079195;28;20025;-74
2021/03/20 04:55:33;;;;;;;3.15;2.42;;;1.40;96.60;;;;;;2079192;28;20045;-74
2021/03/20 04:56:41;;;;;;;6.38;2.63;;;1.40;96.70;;;;;;2079180;28;20038;-74
2021/03/20 04:58:02;;;;;;;4.50;2.65;;;1.30;96.90;;;;;;2070684;28;20426;-74
2021/03/20 04:59:09;;;;;;;2.60;2.13;;;1.30;97.10;;;;;;2082620;28;20485;-74
2021/03/20 05:00:27;;;;;;;3.10;2.72;;;1.30;97.00;;;;;;2084548;28;20029;-74
2021/03/20 05:01:48;;;;;;;3.35;2.58;;;1.30;97.10;;;;;;2090055;28;20083;-74
2021/03/20 05:02:55;;;;;;;2.65;2.45;;;1.20;97.10;;;;;;2085286;28;20071;-74
2021/03/20 05:04:17;;;;;;;3.33;2.47;;;1.20;97.00;;;;;;2079475;28;20026;-74
2021/03/20 05:05:38;;;;;;;3.28;2.05;;;1.20;97.00;;;;;;2076609;28;20032;-74
2021/03/20 05:06:39;;;;;;;2.95;2.60;;;1.20;97.40;;;;;;2077242;28;20037;-74
2021/03/20 05:07:39;;;;;;;3.55;2.33;;;1.20;97.40;;;;;;2079441;28;20049;-74
2021/03/20 05:08:46;;;;;;;3.08;2.30;;;1.20;97.30;;;;;;2079741;28;20033;-75
2021/03/20 05:09:58;;;;;;;5.03;2.50;;;1.20;97.70;;;;;;2079326;28;20049;-74
2021/03/20 05:11:08;;;;;;;3.38;2.50;;;1.10;97.80;;;;;;2077562;28;20026;-74
2021/03/20 05:12:18;;;;;;;5.17;2.90;;;1.10;97.50;;;;;;2079743;28;20028;-75
2021/03/20 05:13:34;;;;;;;;;;;1.10;97.80;;;;;;2080355;28;20412;-74
2021/03/20 05:15:02;;;;;;;4.68;2.88;;;1.00;98.30;;;;;;2079967;28;19909;-74
2021/03/20 05:16:22;;;;;;;3.45;2.97;;;1.00;98.30;;;;;;2079039;28;20025;-75
2021/03/20 05:17:23;;;;;;;3.83;3.10;;;1.00;98.70;;;;;;2079186;28;20071;-75
2021/03/20 05:18:23;;;;;;;3.47;2.58;;;1.00;98.30;;;;;;2074044;28;20036;-74
2021/03/20 05:19:26;;;;;;;3.22;2.50;;;1.00;98.40;;;;;;2076590;28;20028;-74
2021/03/20 05:20:27;;;;;;;5.25;2.80;;;1.00;98.30;;;;;;2078334;28;20390;-74
2021/03/20 05:21:32;;;;;;;4.72;3.22;;;1.00;98.50;;;;;;2070906;28;20028;-74
2021/03/20 05:22:32;;;;;;;5.30;2.72;;;1.00;98.60;;;;;;2071501;28;20025;-75
2021/03/20 05:23:33;;;;;;;3.80;2.83;;;1.00;98.50;;;;;;2079510;28;20106;-74
2021/03/20 05:24:36;;;;;;;4.45;3.00;;;1.00;98.50;;;;;;2079546;28;20029;-75
2021/03/20 05:25:37;;;;;;;3.42;3.00;;;1.00;98.50;;;;;;2072852;28;20030;-74
2021/03/20 05:26:38;;;;;;;6.07;3.10;;;1.00;98.50;;;;;;2071759;28;20025;-74
2021/03/20 05:27:39;;;;;;;5.40;3.42;;;1.00;98.50;;;;;;2074889;28;20037;-74
2021/03/20 05:28:40;;;;;;;4.18;3.05;;;1.00;98.60;;;;;;2070657;28;20026;-76
2021/03/20 05:29:40;;;;;;;4.25;3.00;;;1.00;98.60;;;;;;2066418;28;20522;-77
2021/03/20 05:30:41;;;;;;;4.50;3.28;;;1.00;98.60;;;;;;2080609;28;20036;-78
2021/03/20 05:31:42;;;;;;;5.10;2.83;;;1.00;98.70;;;;;;2072586;28;20390;-78
2021/03/20 05:32:42;;;;;;;3.15;2.85;;;1.00;98.70;;;;;;2080437;28;20399;-78
2021/03/20 05:33:46;;;;;;;3.30;2.75;;;1.00;98.70;;;;;;2088400;28;20029;-77
2021/03/20 05:34:47;;;;;;;9.30;2.83;;;1.00;98.90;;;;;;2088802;28;20028;-77
2021/03/20 05:35:48;;;;;;;5.82;2.85;;;0.90;98.80;;;;;;2079981;28;20025;-77
2021/03/20 05:36:48;;;;;;;3.08;2.72;;;1.00;98.80;;;;;;2079591;28;20112;-75
2021/03/20 05:37:49;;;;;;;3.65;3.08;;;1.00;98.70;;;;;;2071922;28;20563;-74
2021/03/20 05:38:50;;;;;;;5.00;2.85;;;1.00;98.80;;;;;;2078777;28;20049;-74
2021/03/20 05:39:51;;;;;;;4.15;2.88;;;1.00;98.90;;;;;;2071122;28;20525;-76
2021/03/20 05:41:00;;;;;;;5.57;2.90;;;1.00;98.90;;;;;;2070122;28;20034;-75
2021/03/20 05:42:15;;;;;;;4.32;3.03;;;1.00;99.10;;;;;;2069123;28;20032;-76
2021/03/20 05:43:37;;;;;;;8.30;3.38;;;1.00;98.90;;;;;;2069564;28;20021;-74
2021/03/20 05:45:09;;;;;;;5.60;3.10;;;1.00;99.10;;;;;;2072671;28;20429;-74
2021/03/20 05:46:21;;;;;;;5.65;3.28;;;0.90;99.40;;;;;;2071461;28;20022;-74
2021/03/20 05:47:36;;;;;;;5.75;3.10;;;0.90;99.20;;;;;;2078398;28;20043;-75
2021/03/20 05:48:42;;;;;;;4.20;3.08;;;0.90;99.30;;;;;;2069600;28;20478;-75
2021/03/20 05:50:08;;;;;;;4.75;3.38;;;0.90;99.30;;;;;;2069096;28;20030;-75
2021/03/20 05:51:09;;;;;;;5.22;3.25;;;0.90;99.60;;;;;;2079408;28;20021;-74
2021/03/20 05:52:23;;;;;;;5.30;3.25;;;0.90;99.40;;;;;;2078757;28;20147;-74
2021/03/20 05:53:57;;;;;;;6.22;3.80;;;0.90;99.60;;;;;;2072674;28;20034;-74
2021/03/20 05:55:31;;;;;;;6.72;3.20;;;0.90;99.70;;;;;;2071033;28;20057;-76
2021/03/20 05:56:41;;;;;;;6.88;3.08;;;0.90;99.80;;;;;;2079904;28;20033;-75
2021/03/20 05:57:42;;;;;;;5.45;2.83;;;0.90;99.60;;;;;;2079372;28;20030;-76
2021/03/20 05:58:49;;;;;;;4.57;3.15;;;0.80;99.60;;;;;;2078987;28;20096;-75
2021/03/20 06:00:04;;;;;;;4.93;3.80;;;0.90;99.70;;;;;;2079658;28;20030;-75